Time;durP1;ratioP1;P1;durP2;ratioP2;P2;SDS_P1;SDS_P2;PMS_P1;PMS_P2;Temp;Humidity;BMP_temperature;BMP_pressure;BME280_temperature;BME280_humidity;BME280_pressure;Samples;Min_cycle;Max_cycle;Signal;HPM_P1;HPM_P2
2020/12/27 00:00:12;;;;;;;4.95;1.75;;;;;;;;;;4973133;28;20495;-55
2020/12/27 00:02:39;;;;;;;8.25;2.28;;;;;;;;;;4973179;28;20027;-54
2020/12/27 00:05:07;;;;;;;10.68;1.67;;;;;;;;;;4973148;28;20034;-50
2020/12/27 00:07:34;;;;;;;6.05;1.90;;;;;;;;;;4971589;28;20058;-55
2020/12/27 00:10:01;;;;;;;8.68;2.08;;;;;;;;;;4973048;28;20031;-55
2020/12/27 00:12:28;;;;;;;7.75;2.15;;;;;;;;;;4972913;28;20062;-54
2020/12/27 00:14:55;;;;;;;6.63;2.00;;;;;;;;;;4972961;28;20053;-56
2020/12/27 00:17:22;;;;;;;9.50;2.22;;;;;;;;;;4973066;28;20027;-55
2020/12/27 00:19:49;;;;;;;6.30;1.75;;;;;;;;;;4972900;28;20023;-56
2020/12/27 00:22:18;;;;;;;9.80;2.17;;;;;;;;;;4974621;28;20035;-56
2020/12/27 00:24:45;;;;;;;9.57;2.00;;;;;;;;;;4976573;28;20386;-57
2020/12/27 00:27:13;;;;;;;4.40;1.63;;;;;;;;;;4976561;28;20023;-52
2020/12/27 00:29:41;;;;;;;9.35;1.95;;;;;;;;;;4976465;28;20515;-56
2020/12/27 00:32:08;;;;;;;10.57;2.33;;;;;;;;;;4976492;28;20078;-56
2020/12/27 00:34:35;;;;;;;7.70;2.28;;;;;;;;;;4976479;28;20023;-50
2020/12/27 00:37:02;;;;;;;11.55;2.28;;;;;;;;;;4976600;28;20133;-49
2020/12/27 00:39:29;;;;;;;5.75;2.00;;;;;;;;;;4976386;28;20019;-50
2020/12/27 00:41:59;;;;;;;10.52;2.08;;;;;;;;;;4991183;28;20027;-56
2020/12/27 00:44:27;;;;;;;8.20;1.90;;;;;;;;;;4976221;28;20022;-53
2020/12/27 00:46:55;;;;;;;6.18;2.10;;;;;;;;;;4976175;28;20029;-54
2020/12/27 00:49:22;;;;;;;6.32;1.85;;;;;;;;;;4976143;28;20514;-54
2020/12/27 00:51:50;;;;;;;8.52;1.90;;;;;;;;;;4976012;28;20054;-55
2020/12/27 00:54:17;;;;;;;7.15;2.00;;;;;;;;;;4976289;28;20033;-54
2020/12/27 00:56:49;;;;;;;8.05;2.05;;;;;;;;;;4976240;28;20037;-56
2020/12/27 00:59:17;;;;;;;9.75;2.15;;;;;;;;;;4976113;28;20018;-57
2020/12/27 01:01:44;;;;;;;11.40;2.42;;;;;;;;;;4975784;28;20050;-55
2020/12/27 01:04:11;;;;;;;9.05;1.83;;;;;;;;;;4976081;28;20374;-57
2020/12/27 01:06:38;;;;;;;9.43;2.05;;;;;;;;;;4974251;28;20407;-56
2020/12/27 01:09:05;;;;;;;5.97;1.90;;;;;;;;;;4975782;28;20054;-57
2020/12/27 01:11:33;;;;;;;5.88;2.08;;;;;;;;;;4975880;28;20043;-57
2020/12/27 01:14:00;;;;;;;11.07;2.10;;;;;;;;;;4975713;28;20034;-56
2020/12/27 01:16:27;;;;;;;4.40;1.58;;;;;;;;;;4975707;28;20353;-55
2020/12/27 01:18:54;;;;;;;7.00;2.05;;;;;;;;;;4975837;28;20026;-55
2020/12/27 01:21:24;;;;;;;4.05;1.58;;;;;;;;;;4975489;28;20026;-56
2020/12/27 01:23:51;;;;;;;6.15;1.75;;;;;;;;;;4975502;28;20423;-54
2020/12/27 01:26:18;;;;;;;9.60;2.22;;;;;;;;;;4975590;28;20054;-56
2020/12/27 01:28:45;;;;;;;8.80;1.85;;;;;;;;;;4975595;28;20070;-57
2020/12/27 01:31:12;;;;;;;7.45;1.30;;;;;;;;;;4975363;28;20058;-56
2020/12/27 01:33:39;;;;;;;7.00;2.05;;;;;;;;;;4974288;28;20390;-55
2020/12/27 01:36:06;;;;;;;6.95;1.75;;;;;;;;;;4975420;28;20051;-56
2020/12/27 01:38:33;;;;;;;6.65;2.28;;;;;;;;;;4975265;28;20042;-56
2020/12/27 01:41:01;;;;;;;10.23;1.90;;;;;;;;;;4973986;28;20155;-56
2020/12/27 01:43:28;;;;;;;9.25;2.20;;;;;;;;;;4975262;28;20039;-57
2020/12/27 01:45:55;;;;;;;9.02;2.00;;;;;;;;;;4975204;28;20033;-56
2020/12/27 01:48:22;;;;;;;7.75;1.90;;;;;;;;;;4974748;28;20051;-56
2020/12/27 01:50:50;;;;;;;6.55;1.67;;;;;;;;;;4974973;28;20434;-56
2020/12/27 01:53:17;;;;;;;5.70;2.25;;;;;;;;;;4975118;28;20051;-55
2020/12/27 01:55:44;;;;;;;6.72;1.92;;;;;;;;;;4975031;28;20026;-57
2020/12/27 01:58:15;;;;;;;7.43;2.28;;;;;;;;;;4974809;28;20027;-55
2020/12/27 02:00:43;;;;;;;9.63;1.83;;;;;;;;;;4974837;28;20019;-55
2020/12/27 02:03:10;;;;;;;6.25;1.73;;;;;;;;;;4974796;28;20503;-56
2020/12/27 02:05:38;;;;;;;7.40;2.03;;;;;;;;;;4974831;28;20042;-56
2020/12/27 02:08:05;;;;;;;8.23;2.10;;;;;;;;;;4974680;28;20027;-53
2020/12/27 02:10:32;;;;;;;6.70;2.35;;;;;;;;;;4974607;28;20031;-55
2020/12/27 02:12:59;;;;;;;9.50;1.77;;;;;;;;;;4974691;28;20049;-51
2020/12/27 02:15:26;;;;;;;5.65;1.98;;;;;;;;;;4974564;28;20034;-55
2020/12/27 02:17:53;;;;;;;6.43;1.90;;;;;;;;;;4974466;28;20022;-56
2020/12/27 02:20:21;;;;;;;10.02;2.05;;;;;;;;;;4974613;28;20082;-56
2020/12/27 02:22:48;;;;;;;7.53;2.13;;;;;;;;;;4974506;28;20041;-57
2020/12/27 02:25:16;;;;;;;5.90;1.77;;;;;;;;;;4974513;28;20073;-54
2020/12/27 02:27:43;;;;;;;5.90;1.98;;;;;;;;;;4974318;28;20023;-50
2020/12/27 02:30:10;;;;;;;5.65;1.52;;;;;;;;;;4974421;28;20563;-54
2020/12/27 02:32:38;;;;;;;6.07;1.60;;;;;;;;;;4974199;28;20888;-48
2020/12/27 02:35:05;;;;;;;7.18;1.50;;;;;;;;;;4974278;28;20022;-55
2020/12/27 02:37:32;;;;;;;6.88;2.00;;;;;;;;;;4974254;28;20031;-56
2020/12/27 02:39:59;;;;;;;7.22;1.98;;;;;;;;;;4974346;28;20030;-55
2020/12/27 02:42:26;;;;;;;7.40;1.85;;;;;;;;;;4974146;28;20030;-48
2020/12/27 02:47:30;;;;;;;5.00;1.52;;;;;;;;;;4973715;28;20031;-51
2020/12/27 02:49:56;;;;;;;8.32;1.48;;;;;;;;;;4973978;28;20031;-46
2020/12/27 02:52:24;;;;;;;7.88;1.95;;;;;;;;;;4974024;28;20034;-49
2020/12/27 02:54:50;;;;;;;3.47;1.23;;;;;;;;;;4973917;28;20472;-56
2020/12/27 02:57:17;;;;;;;6.03;1.98;;;;;;;;;;4973657;28;20047;-51
2020/12/27 02:59:44;;;;;;;5.18;1.38;;;;;;;;;;4974031;28;20023;-56
2020/12/27 03:02:11;;;;;;;5.65;1.70;;;;;;;;;;4973670;28;20027;-55
2020/12/27 03:04:38;;;;;;;6.03;1.48;;;;;;;;;;4973618;28;20031;-53
2020/12/27 03:07:05;;;;;;;5.40;1.40;;;;;;;;;;4973910;28;20031;-56
2020/12/27 03:09:32;;;;;;;5.18;1.92;;;;;;;;;;4973495;28;20027;-52
2020/12/27 03:11:59;;;;;;;6.32;2.13;;;;;;;;;;4973395;28;20116;-53
2020/12/27 03:14:26;;;;;;;4.90;1.38;;;;;;;;;;4973720;28;20050;-52
2020/12/27 03:16:53;;;;;;;5.03;1.33;;;;;;;;;;4973551;28;20023;-53
2020/12/27 03:19:20;;;;;;;4.95;1.67;;;;;;;;;;4973775;28;20559;-51
2020/12/27 03:21:47;;;;;;;6.88;1.48;;;;;;;;;;4973657;28;20026;-51
2020/12/27 03:24:14;;;;;;;10.32;1.67;;;;;;;;;;4973632;28;20098;-49
2020/12/27 03:26:41;;;;;;;5.35;1.48;;;;;;;;;;4973405;28;20030;-54
2020/12/27 03:29:08;;;;;;;6.90;1.67;;;;;;;;;;4973565;28;20027;-56
2020/12/27 03:31:35;;;;;;;3.50;1.33;;;;;;;;;;4973373;28;20035;-56
2020/12/27 03:34:02;;;;;;;3.45;1.20;;;;;;;;;;4973515;28;20023;-56
2020/12/27 03:36:29;;;;;;;9.75;1.70;;;;;;;;;;4973369;28;20076;-45
2020/12/27 03:38:56;;;;;;;5.95;1.60;;;;;;;;;;4973377;28;20039;-55
2020/12/27 03:41:23;;;;;;;6.50;1.85;;;;;;;;;;4973148;28;20061;-49
2020/12/27 03:43:50;;;;;;;2.97;1.60;;;;;;;;;;4973277;28;20034;-48
2020/12/27 03:46:17;;;;;;;4.65;1.42;;;;;;;;;;4973146;28;20459;-51
2020/12/27 03:48:44;;;;;;;4.35;1.33;;;;;;;;;;4973073;28;20081;-53
2020/12/27 03:51:11;;;;;;;5.82;1.50;;;;;;;;;;4973050;28;20033;-45
2020/12/27 03:53:38;;;;;;;6.43;1.30;;;;;;;;;;4973254;28;20415;-53
2020/12/27 03:56:05;;;;;;;5.10;1.67;;;;;;;;;;4971807;28;20023;-47
2020/12/27 03:58:32;;;;;;;3.40;1.30;;;;;;;;;;4992018;28;20038;-56
2020/12/27 04:00:59;;;;;;;6.82;1.48;;;;;;;;;;4977141;28;20031;-55
2020/12/27 04:03:26;;;;;;;5.95;1.48;;;;;;;;;;4976961;28;20026;-50
2020/12/27 04:05:53;;;;;;;7.75;2.20;;;;;;;;;;4976915;28;20050;-56
2020/12/27 04:08:20;;;;;;;5.15;1.48;;;;;;;;;;4977092;28;20098;-51
2020/12/27 04:10:47;;;;;;;3.22;1.45;;;;;;;;;;4976841;28;20030;-55
2020/12/27 04:13:14;;;;;;;7.18;1.55;;;;;;;;;;4976835;28;20030;-56
2020/12/27 04:15:41;;;;;;;4.15;1.42;;;;;;;;;;4976903;28;20019;-51
2020/12/27 04:18:08;;;;;;;4.75;1.42;;;;;;;;;;4976704;28;20399;-55
2020/12/27 04:20:35;;;;;;;6.20;1.50;;;;;;;;;;4976575;28;20431;-52
2020/12/27 04:23:02;;;;;;;5.05;1.58;;;;;;;;;;4977082;28;20112;-56
2020/12/27 04:25:30;;;;;;;3.60;1.10;;;;;;;;;;4976627;28;20118;-48
2020/12/27 04:27:57;;;;;;;3.92;1.30;;;;;;;;;;4991061;28;20360;-56
2020/12/27 04:30:23;;;;;;;6.35;1.48;;;;;;;;;;4976590;28;20458;-56
2020/12/27 04:32:50;;;;;;;5.22;1.58;;;;;;;;;;4976401;28;20070;-56
2020/12/27 04:35:17;;;;;;;3.72;1.25;;;;;;;;;;4976358;28;20066;-56
2020/12/27 04:37:44;;;;;;;3.65;1.10;;;;;;;;;;4976498;28;20030;-56
2020/12/27 04:40:11;;;;;;;3.58;1.65;;;;;;;;;;4976207;28;20030;-56
2020/12/27 04:42:38;;;;;;;5.07;1.55;;;;;;;;;;4976296;28;20041;-56
2020/12/27 04:45:05;;;;;;;6.05;1.52;;;;;;;;;;4976243;28;20058;-57
2020/12/27 04:47:35;;;;;;;4.53;1.17;;;;;;;;;;4976254;28;20177;-57
2020/12/27 04:50:03;;;;;;;7.60;1.88;;;;;;;;;;4976246;28;20101;-56
2020/12/27 04:52:33;;;;;;;3.75;0.95;;;;;;;;;;4974763;28;20047;-56
2020/12/27 04:55:00;;;;;;;5.43;1.92;;;;;;;;;;4976110;28;20475;-57
2020/12/27 04:57:27;;;;;;;5.65;1.35;;;;;;;;;;4976091;28;20078;-56
2020/12/27 04:59:56;;;;;;;5.35;1.83;;;;;;;;;;4976029;28;20100;-54
2020/12/27 05:02:23;;;;;;;4.05;1.33;;;;;;;;;;4976220;28;20082;-54
2020/12/27 05:04:50;;;;;;;3.55;1.40;;;;;;;;;;4975855;28;20390;-57
2020/12/27 05:07:18;;;;;;;6.32;1.27;;;;;;;;;;4975668;28;20546;-56
2020/12/27 05:09:45;;;;;;;2.83;1.23;;;;;;;;;;4976072;28;20026;-56
2020/12/27 05:12:12;;;;;;;6.90;1.92;;;;;;;;;;4975719;28;20133;-56
2020/12/27 05:14:39;;;;;;;5.90;1.40;;;;;;;;;;4975592;28;20105;-56
2020/12/27 05:17:06;;;;;;;4.50;1.63;;;;;;;;;;4975872;28;20031;-56
2020/12/27 05:19:33;;;;;;;4.60;1.15;;;;;;;;;;4975707;28;20057;-56
2020/12/27 05:22:18;;;;;;;4.38;1.15;;;;;;;;;;4975656;28;20483;-53
2020/12/27 05:24:49;;;;;;;3.40;1.02;;;;;;;;;;4975671;28;20031;-56
2020/12/27 05:27:17;;;;;;;4.88;1.50;;;;;;;;;;4975537;28;20054;-56
2020/12/27 05:29:44;;;;;;;5.43;1.20;;;;;;;;;;4975527;28;20030;-52
2020/12/27 05:32:11;;;;;;;4.78;1.10;;;;;;;;;;4975217;28;20101;-52
2020/12/27 05:34:39;;;;;;;5.88;1.75;;;;;;;;;;4975512;28;20054;-51
2020/12/27 05:37:07;;;;;;;5.60;1.67;;;;;;;;;;4975305;28;20110;-51
2020/12/27 05:39:34;;;;;;;3.22;1.10;;;;;;;;;;4975501;28;20081;-56
2020/12/27 05:42:05;;;;;;;4.03;1.20;;;;;;;;;;4975446;28;20038;-53
2020/12/27 05:44:32;;;;;;;3.50;1.30;;;;;;;;;;4975398;28;20030;-51
2020/12/27 05:46:59;;;;;;;4.90;1.45;;;;;;;;;;4975185;28;20111;-54
2020/12/27 05:49:26;;;;;;;5.25;1.40;;;;;;;;;;4974915;28;20051;-45
2020/12/27 05:51:58;;;;;;;6.65;1.42;;;;;;;;;;4973693;28;20125;-53
2020/12/27 05:54:32;;;;;;;2.95;1.15;;;;;;;;;;4973699;28;20054;-54
2020/12/27 05:57:00;;;;;;;5.82;1.15;;;;;;;;;;4975262;28;20027;-56
2020/12/27 05:59:29;;;;;;;3.42;1.10;;;;;;;;;;4975072;28;20030;-52
2020/12/27 06:01:56;;;;;;;3.92;1.35;;;;;;;;;;4974850;28;20476;-54
2020/12/27 06:04:43;;;;;;;4.70;1.27;;;;;;;;;;4975194;28;20460;-53
2020/12/27 06:07:17;;;;;;;2.38;1.00;;;;;;;;;;4974932;28;20093;-51
2020/12/27 06:09:54;;;;;;;3.85;1.30;;;;;;;;;;4974679;28;20098;-52
2020/12/27 06:12:22;;;;;;;4.03;1.15;;;;;;;;;;4973520;28;20089;-56
2020/12/27 06:15:06;;;;;;;4.25;1.25;;;;;;;;;;4974814;28;20023;-53
2020/12/27 06:17:45;;;;;;;5.30;1.23;;;;;;;;;;4974610;28;20022;-51
2020/12/27 06:20:17;;;;;;;5.18;1.17;;;;;;;;;;4973954;28;20027;-55
2020/12/27 06:22:47;;;;;;;2.67;0.85;;;;;;;;;;4974530;28;20049;-56
2020/12/27 06:25:15;;;;;;;4.10;1.20;;;;;;;;;;4974473;28;20081;-53
2020/12/27 06:27:42;;;;;;;3.80;0.80;;;;;;;;;;4974529;28;20023;-51
2020/12/27 06:30:10;;;;;;;4.13;0.95;;;;;;;;;;4974279;28;20023;-53
2020/12/27 06:32:42;;;;;;;4.72;1.23;;;;;;;;;;4974213;28;20421;-54
2020/12/27 06:35:10;;;;;;;5.15;1.00;;;;;;;;;;4974481;28;20101;-52
2020/12/27 06:37:41;;;;;;;5.90;1.02;;;;;;;;;;4974193;28;20031;-54
2020/12/27 06:40:08;;;;;;;5.05;1.08;;;;;;;;;;4974317;28;20026;-49
2020/12/27 06:42:36;;;;;;;2.85;1.05;;;;;;;;;;4974282;28;20026;-55
2020/12/27 06:45:03;;;;;;;5.88;1.20;;;;;;;;;;4974106;28;20483;-55
2020/12/27 06:47:48;;;;;;;3.35;1.20;;;;;;;;;;4973902;28;20098;-54
2020/12/27 06:50:19;;;;;;;4.65;0.98;;;;;;;;;;4973999;28;20042;-52
2020/12/27 06:52:46;;;;;;;6.03;1.27;;;;;;;;;;4973803;28;20045;-54
2020/12/27 06:55:32;;;;;;;3.35;0.90;;;;;;;;;;4973920;28;20365;-52
2020/12/27 06:58:15;;;;;;;5.95;1.65;;;;;;;;;;4974073;28;20111;-48
2020/12/27 07:00:42;;;;;;;4.40;1.35;;;;;;;;;;4974011;28;20456;-55
2020/12/27 07:03:16;;;;;;;3.00;0.88;;;;;;;;;;4973839;28;20019;-52
2020/12/27 07:05:44;;;;;;;2.53;1.00;;;;;;;;;;4973689;28;20023;-54
2020/12/27 07:08:12;;;;;;;3.17;0.93;;;;;;;;;;4973983;28;20109;-54
2020/12/27 07:10:46;;;;;;;2.50;1.02;;;;;;;;;;4973654;28;20070;-55
2020/12/27 07:13:17;;;;;;;2.75;0.70;;;;;;;;;;4973749;28;20035;-53
2020/12/27 07:15:50;;;;;;;3.90;1.20;;;;;;;;;;4973566;28;20023;-56
2020/12/27 07:18:35;;;;;;;2.63;0.90;;;;;;;;;;4973783;28;20474;-53
2020/12/27 07:21:03;;;;;;;3.00;1.05;;;;;;;;;;4973750;28;20026;-52
2020/12/27 07:23:33;;;;;;;5.07;1.38;;;;;;;;;;4973516;28;20018;-55
2020/12/27 07:26:04;;;;;;;4.25;1.13;;;;;;;;;;4973695;28;20049;-55
2020/12/27 07:28:31;;;;;;;3.40;0.90;;;;;;;;;;4973281;28;20033;-53
2020/12/27 07:30:59;;;;;;;4.80;0.95;;;;;;;;;;4972447;28;20027;-52
2020/12/27 07:33:36;;;;;;;3.22;1.10;;;;;;;;;;4973306;28;20027;-53
2020/12/27 07:36:03;;;;;;;5.07;1.23;;;;;;;;;;4973289;28;20031;-55
2020/12/27 07:38:50;;;;;;;3.40;1.00;;;;;;;;;;4973479;28;20034;-55
2020/12/27 07:41:26;;;;;;;2.00;0.88;;;;;;;;;;4966371;28;20458;-52
2020/12/27 07:43:54;;;;;;;3.72;1.40;;;;;;;;;;4973392;28;20026;-51
2020/12/27 07:46:22;;;;;;;2.05;0.98;;;;;;;;;;4973210;28;20040;-52
2020/12/27 07:48:49;;;;;;;3.30;1.30;;;;;;;;;;4973113;28;20495;-51
2020/12/27 07:51:17;;;;;;;3.53;0.75;;;;;;;;;;4973337;28;20063;-55
2020/12/27 07:53:58;;;;;;;7.40;1.40;;;;;;;;;;4973239;28;20031;-54
2020/12/27 07:56:28;;;;;;;4.85;1.05;;;;;;;;;;4973154;28;20034;-56
2020/12/27 07:58:56;;;;;;;2.90;1.00;;;;;;;;;;4973191;28;20102;-55
2020/12/27 08:01:30;;;;;;;3.33;1.17;;;;;;;;;;4973173;28;20361;-54
2020/12/27 08:03:58;;;;;;;2.50;0.70;;;;;;;;;;4971846;28;20559;-56
2020/12/27 08:06:26;;;;;;;4.25;1.42;;;;;;;;;;4973135;28;20480;-52
2020/12/27 08:09:02;;;;;;;2.50;0.80;;;;;;;;;;4972917;28;20517;-57
2020/12/27 08:11:30;;;;;;;1.75;1.00;;;;;;;;;;4973117;28;20027;-56
2020/12/27 08:13:59;;;;;;;2.05;0.60;;;;;;;;;;4973079;28;20042;-52
2020/12/27 08:16:26;;;;;;;3.60;1.20;;;;;;;;;;4972989;28;20030;-56
2020/12/27 08:19:03;;;;;;;1.77;0.80;;;;;;;;;;4972820;28;20414;-56
2020/12/27 08:21:30;;;;;;;4.85;1.00;;;;;;;;;;4972945;28;20029;-56
2020/12/27 08:24:01;;;;;;;2.60;1.00;;;;;;;;;;4972903;28;20035;-56
2020/12/27 08:26:29;;;;;;;3.65;1.35;;;;;;;;;;4972860;28;20026;-55
2020/12/27 08:29:16;;;;;;;2.72;1.00;;;;;;;;;;4973033;28;20034;-56
2020/12/27 08:31:44;;;;;;;2.22;1.10;;;;;;;;;;4971332;28;20447;-56
2020/12/27 08:34:12;;;;;;;3.50;0.88;;;;;;;;;;4972801;28;20023;-55
2020/12/27 08:36:40;;;;;;;3.70;1.02;;;;;;;;;;4972814;28;20035;-56
2020/12/27 08:39:07;;;;;;;3.60;0.95;;;;;;;;;;4972660;28;20019;-54
2020/12/27 08:41:38;;;;;;;3.95;0.98;;;;;;;;;;4972742;28;20058;-55
2020/12/27 08:44:20;;;;;;;3.22;1.25;;;;;;;;;;4975829;28;20026;-56
2020/12/27 08:46:49;;;;;;;1.75;0.65;;;;;;;;;;4976135;28;20046;-54
2020/12/27 08:49:22;;;;;;;3.58;0.80;;;;;;;;;;4976048;28;20495;-56
2020/12/27 08:51:59;;;;;;;2.58;0.75;;;;;;;;;;4976151;28;20499;-56
2020/12/27 08:54:26;;;;;;;1.35;0.88;;;;;;;;;;4976282;28;20062;-53
2020/12/27 08:56:54;;;;;;;3.65;0.93;;;;;;;;;;4976123;28;20031;-56
2020/12/27 08:59:21;;;;;;;3.80;1.13;;;;;;;;;;4975932;28;20018;-56
2020/12/27 09:01:50;;;;;;;2.72;0.95;;;;;;;;;;4976095;28;20027;-56
2020/12/27 09:04:20;;;;;;;2.65;1.00;;;;;;;;;;4975762;28;20069;-56
2020/12/27 09:06:54;;;;;;;4.45;1.35;;;;;;;;;;4975925;28;20207;-54
2020/12/27 09:09:21;;;;;;;3.58;1.10;;;;;;;;;;4975950;28;20056;-56
2020/12/27 09:11:49;;;;;;;2.42;0.90;;;;;;;;;;4975745;28;20042;-55
2020/12/27 09:14:31;;;;;;;3.95;1.13;;;;;;;;;;4975844;28;20018;-56
2020/12/27 09:17:01;;;;;;;4.07;1.08;;;;;;;;;;4975725;28;20023;-56
2020/12/27 09:19:29;;;;;;;3.45;0.88;;;;;;;;;;4975717;28;20062;-55
2020/12/27 09:21:55;;;;;;;3.13;0.77;;;;;;;;;;4975791;28;20026;-57
2020/12/27 09:24:22;;;;;;;3.35;1.13;;;;;;;;;;4975532;28;20530;-56
2020/12/27 09:26:50;;;;;;;3.33;0.98;;;;;;;;;;4975861;28;20034;-56
2020/12/27 09:29:17;;;;;;;2.85;0.98;;;;;;;;;;4975633;28;20480;-56
2020/12/27 09:31:45;;;;;;;2.40;0.60;;;;;;;;;;4975447;28;20067;-56
2020/12/27 09:34:12;;;;;;;7.63;1.05;;;;;;;;;;4975430;28;20026;-56
2020/12/27 09:36:40;;;;;;;1.70;0.73;;;;;;;;;;4975538;28;20105;-52
2020/12/27 09:39:07;;;;;;;2.40;0.98;;;;;;;;;;4975194;28;20022;-49
2020/12/27 09:41:38;;;;;;;3.25;1.02;;;;;;;;;;4975246;28;20034;-52
2020/12/27 09:44:05;;;;;;;4.15;1.33;;;;;;;;;;4975465;28;20023;-54
2020/12/27 09:46:39;;;;;;;4.10;0.90;;;;;;;;;;4975284;28;20031;-50
2020/12/27 09:49:19;;;;;;;3.53;1.35;;;;;;;;;;4975033;28;20058;-49
2020/12/27 09:51:46;;;;;;;3.75;1.00;;;;;;;;;;4974864;28;20026;-55
2020/12/27 09:54:13;;;;;;;3.60;0.88;;;;;;;;;;4974190;28;20030;-50
2020/12/27 09:56:44;;;;;;;3.83;1.25;;;;;;;;;;4975179;28;20022;-54
2020/12/27 09:59:11;;;;;;;2.75;1.10;;;;;;;;;;4975042;28;20065;-51
2020/12/27 10:01:38;;;;;;;3.97;0.80;;;;;;;;;;4974864;28;20419;-52
2020/12/27 10:04:05;;;;;;;3.10;1.10;;;;;;;;;;4975043;28;20023;-53
2020/12/27 10:06:32;;;;;;;2.13;0.80;;;;;;;;;;4974701;28;20031;-54
2020/12/27 10:08:59;;;;;;;3.63;1.15;;;;;;;;;;4973479;28;20501;-56
2020/12/27 10:11:26;;;;;;;2.35;1.05;;;;;;;;;;4974906;28;20109;-51
2020/12/27 10:13:53;;;;;;;3.13;1.05;;;;;;;;;;4974552;28;20440;-53
2020/12/27 10:16:20;;;;;;;2.88;1.00;;;;;;;;;;4974429;28;20114;-54
2020/12/27 10:18:47;;;;;;;1.65;0.60;;;;;;;;;;4974801;28;20027;-55
2020/12/27 10:21:14;;;;;;;2.45;0.70;;;;;;;;;;4974523;28;20102;-54
2020/12/27 10:23:41;;;;;;;2.65;0.80;;;;;;;;;;4974558;28;20031;-50
2020/12/27 10:26:08;;;;;;;3.90;1.05;;;;;;;;;;4974584;28;20019;-51
2020/12/27 10:28:35;;;;;;;5.60;1.45;;;;;;;;;;4974424;28;20065;-52
2020/12/27 10:31:02;;;;;;;3.50;1.25;;;;;;;;;;4974232;28;20023;-50
2020/12/27 10:33:29;;;;;;;3.85;0.93;;;;;;;;;;4974396;28;20419;-56
2020/12/27 10:35:58;;;;;;;2.67;0.85;;;;;;;;;;4974079;28;20058;-52
2020/12/27 10:38:25;;;;;;;3.95;0.70;;;;;;;;;;4974175;28;20058;-55
2020/12/27 10:40:52;;;;;;;3.67;0.88;;;;;;;;;;4974280;28;20042;-53
2020/12/27 10:43:19;;;;;;;2.67;0.98;;;;;;;;;;4974144;28;20028;-49
2020/12/27 10:45:46;;;;;;;2.40;1.00;;;;;;;;;;4974052;28;20094;-54
2020/12/27 10:48:13;;;;;;;3.97;0.93;;;;;;;;;;4974028;28;20054;-53
2020/12/27 10:50:41;;;;;;;4.35;1.05;;;;;;;;;;4974014;28;20062;-53
2020/12/27 10:53:08;;;;;;;3.75;0.80;;;;;;;;;;4973904;28;20122;-55
2020/12/27 10:55:35;;;;;;;4.05;1.02;;;;;;;;;;4974077;28;20026;-56
2020/12/27 10:58:02;;;;;;;3.35;1.00;;;;;;;;;;4974070;28;20038;-56
2020/12/27 11:00:29;;;;;;;5.22;0.98;;;;;;;;;;4973879;28;20022;-54
2020/12/27 11:02:56;;;;;;;3.50;1.20;;;;;;;;;;4973950;28;20098;-48
2020/12/27 11:05:23;;;;;;;3.03;1.17;;;;;;;;;;4973663;28;20034;-49
2020/12/27 11:07:50;;;;;;;3.33;0.80;;;;;;;;;;4973699;28;20019;-53
2020/12/27 11:10:17;;;;;;;5.90;1.00;;;;;;;;;;4973645;28;20027;-53
2020/12/27 11:12:44;;;;;;;3.03;0.73;;;;;;;;;;4973723;28;20395;-51
2020/12/27 11:15:11;;;;;;;3.47;0.82;;;;;;;;;;4973513;28;20027;-47
2020/12/27 11:17:38;;;;;;;1.85;0.90;;;;;;;;;;4973527;28;20035;-53
2020/12/27 11:20:05;;;;;;;2.25;0.85;;;;;;;;;;4973639;28;20027;-55
2020/12/27 11:22:35;;;;;;;2.05;0.90;;;;;;;;;;4973349;28;20113;-56
2020/12/27 11:25:02;;;;;;;4.22;1.00;;;;;;;;;;4973367;28;20476;-52
2020/12/27 11:27:29;;;;;;;3.35;0.80;;;;;;;;;;4973680;28;20434;-56
2020/12/27 11:29:57;;;;;;;3.42;0.77;;;;;;;;;;4973415;28;20031;-56
2020/12/27 11:32:24;;;;;;;2.67;1.02;;;;;;;;;;4973172;28;20042;-56
2020/12/27 11:34:51;;;;;;;4.00;1.05;;;;;;;;;;4973480;28;20442;-56
2020/12/27 11:37:18;;;;;;;3.22;0.98;;;;;;;;;;4973310;28;20505;-56
2020/12/27 11:39:45;;;;;;;2.13;0.80;;;;;;;;;;4973276;28;20130;-56
2020/12/27 11:42:12;;;;;;;3.08;0.93;;;;;;;;;;4973422;28;20018;-56
2020/12/27 11:44:39;;;;;;;2.70;0.90;;;;;;;;;;4973335;28;20019;-56
2020/12/27 11:47:07;;;;;;;3.35;0.95;;;;;;;;;;4973065;28;20027;-57
2020/12/27 11:49:34;;;;;;;3.20;1.08;;;;;;;;;;4973252;28;20051;-56
2020/12/27 11:52:01;;;;;;;2.92;1.10;;;;;;;;;;4973083;28;20446;-56
2020/12/27 11:54:28;;;;;;;3.35;0.90;;;;;;;;;;4973423;28;20034;-56
2020/12/27 11:56:56;;;;;;;3.88;1.00;;;;;;;;;;4973310;28;20023;-55
2020/12/27 11:59:23;;;;;;;4.75;0.95;;;;;;;;;;4973112;28;20015;-57
2020/12/27 12:01:51;;;;;;;2.38;0.85;;;;;;;;;;4972948;28;20026;-56
2020/12/27 12:04:18;;;;;;;3.50;0.90;;;;;;;;;;4973197;28;20023;-56
2020/12/27 12:06:45;;;;;;;4.25;1.00;;;;;;;;;;4973056;28;20027;-56
2020/12/27 12:09:13;;;;;;;4.93;0.88;;;;;;;;;;4973114;28;20027;-56
2020/12/27 12:11:40;;;;;;;4.57;1.13;;;;;;;;;;4973113;28;20033;-56
2020/12/27 12:14:08;;;;;;;2.95;0.82;;;;;;;;;;4973102;28;20027;-57
2020/12/27 12:16:35;;;;;;;3.10;0.80;;;;;;;;;;4972760;28;20023;-56
2020/12/27 12:19:03;;;;;;;3.28;1.10;;;;;;;;;;4976006;28;20059;-55
2020/12/27 12:21:31;;;;;;;6.30;1.20;;;;;;;;;;4976939;28;20539;-56
2020/12/27 12:24:01;;;;;;;4.25;0.93;;;;;;;;;;4976689;28;20023;-54
2020/12/27 12:26:29;;;;;;;5.68;1.67;;;;;;;;;;4976661;28;20027;-56
2020/12/27 12:28:56;;;;;;;4.97;1.20;;;;;;;;;;4976816;28;20046;-55
2020/12/27 12:31:23;;;;;;;4.45;1.20;;;;;;;;;;4976319;28;20030;-56
2020/12/27 12:33:50;;;;;;;2.63;1.00;;;;;;;;;;4975100;28;20054;-56
2020/12/27 12:36:18;;;;;;;5.85;1.38;;;;;;;;;;4976600;28;20054;-56
2020/12/27 12:38:46;;;;;;;3.22;0.85;;;;;;;;;;4976536;28;20031;-56
2020/12/27 12:41:16;;;;;;;2.95;1.17;;;;;;;;;;4976395;28;20025;-56
2020/12/27 12:43:44;;;;;;;3.72;1.02;;;;;;;;;;4976437;28;20027;-57
2020/12/27 12:46:12;;;;;;;3.75;1.05;;;;;;;;;;4976486;28;20054;-53
2020/12/27 12:48:40;;;;;;;4.93;1.60;;;;;;;;;;4976141;28;20046;-57
2020/12/27 12:51:08;;;;;;;3.88;1.45;;;;;;;;;;4976163;28;20026;-53
2020/12/27 12:53:35;;;;;;;4.22;1.25;;;;;;;;;;4976368;28;20054;-57
2020/12/27 12:56:02;;;;;;;4.13;0.80;;;;;;;;;;4976101;28;20069;-56
2020/12/27 12:58:29;;;;;;;4.38;1.30;;;;;;;;;;4975905;28;20422;-56
2020/12/27 13:00:56;;;;;;;3.58;1.33;;;;;;;;;;4976104;28;20034;-53
2020/12/27 13:03:22;;;;;;;1.80;0.85;;;;;;;;;;4976018;28;20110;-56
2020/12/27 13:05:50;;;;;;;5.10;1.35;;;;;;;;;;4975899;28;20383;-56
2020/12/27 13:08:17;;;;;;;3.55;1.20;;;;;;;;;;4976172;28;20023;-56
2020/12/27 13:10:44;;;;;;;4.22;1.08;;;;;;;;;;4975806;28;20098;-55
2020/12/27 13:13:11;;;;;;;7.47;1.42;;;;;;;;;;4975537;28;20046;-55
2020/12/27 13:15:38;;;;;;;10.55;1.92;;;;;;;;;;4975792;28;20157;-55
2020/12/27 13:18:05;;;;;;;6.70;2.17;;;;;;;;;;4975839;28;20027;-57
2020/12/27 13:20:31;;;;;;;6.05;1.35;;;;;;;;;;4975643;28;20368;-55
2020/12/27 13:22:58;;;;;;;4.28;1.35;;;;;;;;;;4975723;28;20471;-56
2020/12/27 13:25:25;;;;;;;5.78;1.50;;;;;;;;;;4975470;28;20081;-55
2020/12/27 13:27:52;;;;;;;6.78;1.83;;;;;;;;;;4975521;28;20027;-55
2020/12/27 13:30:20;;;;;;;6.07;1.15;;;;;;;;;;4975658;28;20027;-56
2020/12/27 13:32:47;;;;;;;4.20;1.63;;;;;;;;;;4975398;28;20035;-56
2020/12/27 13:35:14;;;;;;;3.35;1.20;;;;;;;;;;4975374;28;20424;-51
2020/12/27 13:37:41;;;;;;;4.40;1.30;;;;;;;;;;4975552;28;20034;-53
2020/12/27 13:40:09;;;;;;;7.53;1.20;;;;;;;;;;4975308;28;20023;-55
2020/12/27 13:42:36;;;;;;;6.95;1.25;;;;;;;;;;4973748;28;20360;-55
2020/12/27 13:45:04;;;;;;;7.35;1.40;;;;;;;;;;4975401;28;20423;-56
2020/12/27 13:47:31;;;;;;;5.60;0.93;;;;;;;;;;4974928;28;20019;-56
2020/12/27 13:49:58;;;;;;;5.95;0.90;;;;;;;;;;4975193;28;20105;-52
2020/12/27 13:52:25;;;;;;;5.93;1.40;;;;;;;;;;4975093;28;20035;-56
2020/12/27 13:54:52;;;;;;;5.70;1.52;;;;;;;;;;4974965;28;20062;-53
2020/12/27 13:57:19;;;;;;;7.10;1.10;;;;;;;;;;4974881;28;20081;-56
2020/12/27 13:59:46;;;;;;;3.83;1.48;;;;;;;;;;4975030;28;20027;-56
2020/12/27 14:02:13;;;;;;;4.72;1.17;;;;;;;;;;4974918;28;20114;-51
2020/12/27 14:04:40;;;;;;;4.93;1.02;;;;;;;;;;4974735;28;20026;-52
2020/12/27 14:07:07;;;;;;;5.60;1.40;;;;;;;;;;4974898;28;20075;-55
2020/12/27 14:09:34;;;;;;;3.47;1.25;;;;;;;;;;4974678;28;20485;-54
2020/12/27 14:12:01;;;;;;;5.55;1.40;;;;;;;;;;4973154;28;20065;-54
2020/12/27 14:14:28;;;;;;;4.38;1.00;;;;;;;;;;4974732;28;20027;-53
2020/12/27 14:16:55;;;;;;;5.93;1.30;;;;;;;;;;4974535;28;20027;-52
2020/12/27 14:19:22;;;;;;;5.85;1.40;;;;;;;;;;4974448;28;20431;-54
2020/12/27 14:21:49;;;;;;;7.35;1.35;;;;;;;;;;4973318;28;20019;-56
2020/12/27 14:24:16;;;;;;;4.53;1.20;;;;;;;;;;4974485;28;20034;-56
2020/12/27 14:26:43;;;;;;;4.50;1.40;;;;;;;;;;4974270;28;20027;-50
2020/12/27 14:29:10;;;;;;;6.85;1.67;;;;;;;;;;4974500;28;20034;-54
2020/12/27 14:31:37;;;;;;;5.18;1.15;;;;;;;;;;4974341;28;20086;-55
2020/12/27 14:34:04;;;;;;;5.47;1.25;;;;;;;;;;4974260;28;20386;-53
2020/12/27 14:36:31;;;;;;;3.67;1.33;;;;;;;;;;4974288;28;20526;-50
2020/12/27 14:38:58;;;;;;;7.40;1.30;;;;;;;;;;4974398;28;20077;-55
2020/12/27 14:41:25;;;;;;;5.05;1.38;;;;;;;;;;4973544;28;20027;-52
2020/12/27 14:43:52;;;;;;;5.25;1.13;;;;;;;;;;4974281;28;20022;-51
2020/12/27 14:46:21;;;;;;;6.35;1.60;;;;;;;;;;4974177;28;20018;-53
2020/12/27 14:48:48;;;;;;;5.28;1.65;;;;;;;;;;4973807;28;20490;-54
2020/12/27 14:51:15;;;;;;;8.25;1.42;;;;;;;;;;4973937;28;20027;-56